createdAt,value
2022-08-26T00:01:46.249Z,82.60
2022-08-26T00:04:13.511Z,82.90
2022-08-26T00:06:42.674Z,82.60
2022-08-26T00:09:13.064Z,82.20
2022-08-26T00:11:43.388Z,82.40
2022-08-26T00:14:10.073Z,82.60
2022-08-26T00:16:36.925Z,83.20
2022-08-26T00:19:08.308Z,83.50
2022-08-26T00:21:35.477Z,83.80
2022-08-26T00:24:04.503Z,84.30
2022-08-26T00:26:33.684Z,84.70
2022-08-26T00:29:00.483Z,84.90
2022-08-26T00:31:27.390Z,85.00
2022-08-26T00:33:54.115Z,85.40
2022-08-26T00:36:22.758Z,85.50
2022-08-26T00:38:49.732Z,85.70
2022-08-26T00:41:18.875Z,86.00
2022-08-26T00:43:47.921Z,86.10
2022-08-26T00:46:18.912Z,86.10
2022-08-26T00:48:47.233Z,86.20
2022-08-26T00:51:19.855Z,86.40
2022-08-26T00:53:54.917Z,86.40
2022-08-26T00:56:28.553Z,86.40
2022-08-26T00:58:56.848Z,86.60
2022-08-26T01:01:23.602Z,86.90
2022-08-26T01:03:50.352Z,86.90
2022-08-26T01:06:17.072Z,87.20
2022-08-26T01:08:43.828Z,87.30
2022-08-26T01:11:11.408Z,87.60
2022-08-26T01:13:38.911Z,87.70
2022-08-26T01:16:07.012Z,88.20
2022-08-26T01:18:33.991Z,88.60
2022-08-26T01:21:06.869Z,88.90
2022-08-26T01:23:37.133Z,89.50
2022-08-26T01:26:07.623Z,90.10
2022-08-26T01:28:50.647Z,90.70
2022-08-26T01:31:20.885Z,90.60
2022-08-26T01:34:06.624Z,90.90
2022-08-26T01:36:36.638Z,91.00
2022-08-26T01:39:03.716Z,91.30
2022-08-26T01:41:33.369Z,91.40
2022-08-26T01:44:00.832Z,91.70
2022-08-26T01:46:29.556Z,92.00
2022-08-26T01:48:58.397Z,92.30
2022-08-26T01:51:26.143Z,92.90
2022-08-26T01:53:52.922Z,93.20
2022-08-26T01:56:21.578Z,93.70
2022-08-26T01:58:53.635Z,93.90
2022-08-26T02:01:21.561Z,94.40
2022-08-26T02:04:07.263Z,94.80
2022-08-26T02:06:35.762Z,95.20
2022-08-26T02:09:03.638Z,95.50
2022-08-26T02:11:30.636Z,96.00
2022-08-26T02:14:01.715Z,96.50
2022-08-26T02:16:33.452Z,96.80
2022-08-26T02:19:00.809Z,97.30
2022-08-26T02:21:27.884Z,97.60
2022-08-26T02:23:56.178Z,98.10
2022-08-26T02:26:26.976Z,98.30
2022-08-26T02:29:00.105Z,98.60
2022-08-26T02:31:27.464Z,98.80
2022-08-26T02:37:12.473Z,99.30
2022-08-26T02:39:40.401Z,99.60
2022-08-26T02:42:07.730Z,99.90
2022-08-26T02:44:34.597Z,99.90
2022-08-26T02:47:01.381Z,99.90
2022-08-26T02:49:28.869Z,99.90
2022-08-26T02:51:55.536Z,99.90
2022-08-26T02:54:23.272Z,99.90
2022-08-26T02:56:51.345Z,99.90
2022-08-26T02:59:18.383Z,99.90
2022-08-26T03:01:45.361Z,99.90
2022-08-26T03:04:12.488Z,99.90
2022-08-26T03:06:39.204Z,99.90
2022-08-26T03:09:07.741Z,99.90
2022-08-26T03:11:34.515Z,99.90
2022-08-26T03:14:01.860Z,99.90
2022-08-26T03:16:37.211Z,99.90
2022-08-26T03:19:05.145Z,99.90
2022-08-26T03:21:33.036Z,99.90
2022-08-26T03:24:00.386Z,99.90
2022-08-26T03:26:28.329Z,99.90
2022-08-26T03:29:14.272Z,99.90
2022-08-26T03:31:41.282Z,99.90
2022-08-26T03:34:09.733Z,99.90
2022-08-26T03:36:38.794Z,99.90
2022-08-26T03:39:07.327Z,99.90
2022-08-26T03:41:35.943Z,99.90
2022-08-26T03:44:03.764Z,99.90
2022-08-26T03:46:31.359Z,99.90
2022-08-26T03:48:58.583Z,99.90
2022-08-26T03:51:25.628Z,99.90
2022-08-26T03:53:53.099Z,99.90
2022-08-26T03:56:20.145Z,99.90
2022-08-26T03:58:46.871Z,99.90
2022-08-26T04:01:14.129Z,99.90
2022-08-26T04:03:58.182Z,99.90
2022-08-26T04:06:32.318Z,99.90
2022-08-26T04:09:00.357Z,99.90
2022-08-26T04:11:34.259Z,99.90
2022-08-26T04:14:03.890Z,99.90
2022-08-26T04:16:30.916Z,99.90
2022-08-26T04:18:57.695Z,99.90
2022-08-26T04:21:25.105Z,99.90
2022-08-26T04:23:52.009Z,99.90
2022-08-26T04:26:20.276Z,99.90
2022-08-26T04:28:47.677Z,99.90
2022-08-26T04:31:15.016Z,99.90
2022-08-26T04:33:46.013Z,99.90
2022-08-26T04:36:13.217Z,99.90
2022-08-26T04:38:39.908Z,99.90
2022-08-26T04:41:15.546Z,99.90
2022-08-26T04:43:44.368Z,99.90
2022-08-26T04:46:12.921Z,99.90
2022-08-26T04:48:41.198Z,99.90
2022-08-26T04:51:08.617Z,99.90
2022-08-26T04:53:36.915Z,99.90
2022-08-26T04:56:04.075Z,99.90
2022-08-26T04:58:31.480Z,99.90
2022-08-26T05:00:58.617Z,99.90
2022-08-26T05:03:30.272Z,99.90
2022-08-26T05:05:57.845Z,99.90
2022-08-26T05:08:24.646Z,99.90
2022-08-26T05:10:54.276Z,99.90
2022-08-26T05:13:23.417Z,99.90
2022-08-26T05:15:50.948Z,99.90
2022-08-26T05:18:19.981Z,99.90
2022-08-26T05:20:48.496Z,99.90
2022-08-26T05:23:16.163Z,99.90
2022-08-26T05:25:44.819Z,99.90
2022-08-26T05:28:12.209Z,99.90
2022-08-26T05:30:40.192Z,99.90
2022-08-26T05:33:08.917Z,99.90
2022-08-26T05:35:38.283Z,99.90
2022-08-26T05:38:12.670Z,99.90
2022-08-26T05:40:41.657Z,99.90
2022-08-26T05:43:10.886Z,99.90
2022-08-26T05:45:43.541Z,99.90
2022-08-26T05:48:13.198Z,99.90
2022-08-26T05:50:44.769Z,99.90
2022-08-26T05:53:12.087Z,99.90
2022-08-26T05:55:43.945Z,99.90
2022-08-26T05:58:11.604Z,99.90
2022-08-26T06:00:38.624Z,99.90
2022-08-26T06:03:08.507Z,99.90
2022-08-26T06:05:41.758Z,99.90
2022-08-26T06:08:13.898Z,99.90
2022-08-26T06:11:05.363Z,99.90
2022-08-26T06:13:32.667Z,99.90
2022-08-26T06:16:03.923Z,99.90
2022-08-26T06:18:32.711Z,99.90
2022-08-26T06:20:59.703Z,99.90
2022-08-26T06:23:48.473Z,99.90
2022-08-26T06:26:16.231Z,99.90
2022-08-26T06:28:45.600Z,99.90
2022-08-26T06:31:13.062Z,99.90
2022-08-26T06:33:39.839Z,99.90
2022-08-26T06:36:06.885Z,99.90
2022-08-26T06:38:33.660Z,99.90
2022-08-26T06:41:01.066Z,99.90
2022-08-26T06:43:29.618Z,99.90
2022-08-26T06:46:04.967Z,99.90
2022-08-26T06:48:32.130Z,99.90
2022-08-26T06:51:18.598Z,99.90
2022-08-26T06:53:47.051Z,99.90
2022-08-26T06:56:16.672Z,99.90
2022-08-26T06:58:43.722Z,99.90
2022-08-26T07:01:27.083Z,99.90
2022-08-26T07:03:55.091Z,99.90
2022-08-26T07:06:24.282Z,99.90
2022-08-26T07:08:53.120Z,99.90
2022-08-26T07:11:20.702Z,99.90
2022-08-26T07:13:47.760Z,99.90
2022-08-26T07:16:15.525Z,99.90
2022-08-26T07:18:44.940Z,99.90
2022-08-26T07:21:13.693Z,99.90
2022-08-26T07:23:41.360Z,99.90
2022-08-26T07:26:10.720Z,99.90
2022-08-26T07:28:38.247Z,99.90
2022-08-26T07:31:07.445Z,99.90
2022-08-26T07:33:37.599Z,99.90
2022-08-26T07:36:07.007Z,99.90
2022-08-26T07:38:34.406Z,99.90
2022-08-26T07:41:01.929Z,99.90
2022-08-26T07:43:28.946Z,99.90
2022-08-26T07:45:56.262Z,99.90
2022-08-26T07:48:23.276Z,99.90
2022-08-26T07:50:50.831Z,99.90
2022-08-26T07:53:20.501Z,99.90
2022-08-26T07:55:47.258Z,99.90
2022-08-26T07:58:13.996Z,99.90
2022-08-26T08:00:41.511Z,99.90
2022-08-26T08:03:08.554Z,99.90
2022-08-26T08:05:36.800Z,99.90
2022-08-26T08:08:26.621Z,99.90
2022-08-26T08:10:55.531Z,99.90
2022-08-26T08:13:23.012Z,99.90
2022-08-26T08:15:50.461Z,99.90
2022-08-26T08:18:20.466Z,99.90
2022-08-26T08:21:04.667Z,99.90
2022-08-26T08:23:32.019Z,99.90
2022-08-26T08:26:02.610Z,99.90
2022-08-26T08:28:29.342Z,99.90
2022-08-26T08:30:56.530Z,99.90
2022-08-26T08:33:23.319Z,99.90
2022-08-26T08:35:50.099Z,99.90
2022-08-26T08:38:16.925Z,99.90
2022-08-26T08:40:45.002Z,99.90
2022-08-26T08:43:13.734Z,99.90
2022-08-26T08:45:42.998Z,99.90
2022-08-26T08:48:13.847Z,99.90
2022-08-26T08:50:43.819Z,99.90
2022-08-26T08:53:19.006Z,99.90
2022-08-26T08:55:51.726Z,99.90
2022-08-26T08:58:24.725Z,99.90
2022-08-26T09:00:54.093Z,99.90
2022-08-26T09:03:43.853Z,99.90
2022-08-26T09:06:17.395Z,99.90
2022-08-26T09:08:50.087Z,99.90
2022-08-26T09:11:18.662Z,99.90
2022-08-26T09:13:49.226Z,99.90
2022-08-26T09:16:21.548Z,99.90
2022-08-26T09:18:59.832Z,99.90
2022-08-26T09:21:28.053Z,99.90
2022-08-26T09:23:56.614Z,99.90
2022-08-26T09:26:25.954Z,99.90
2022-08-26T09:29:00.411Z,99.90
2022-08-26T09:31:28.833Z,99.90
2022-08-26T09:34:06.235Z,99.90
2022-08-26T09:36:41.293Z,99.90
2022-08-26T09:39:27.759Z,99.90
2022-08-26T09:42:06.854Z,99.90
2022-08-26T09:44:34.467Z,99.90
2022-08-26T09:47:03.570Z,99.90
2022-08-26T09:49:36.513Z,99.90
2022-08-26T09:52:20.033Z,99.90
2022-08-26T09:54:59.482Z,99.90
2022-08-26T09:57:28.251Z,99.90
2022-08-26T09:59:55.743Z,99.90
2022-08-26T10:02:31.922Z,99.90
2022-08-26T10:04:59.491Z,99.90
2022-08-26T10:07:40.632Z,99.90
2022-08-26T10:10:26.217Z,99.90
2022-08-26T10:13:03.408Z,99.90
2022-08-26T10:15:33.496Z,99.90
2022-08-26T10:18:11.204Z,99.90
2022-08-26T10:20:41.823Z,99.90
2022-08-26T10:23:17.100Z,99.90
2022-08-26T10:25:51.520Z,99.90
2022-08-26T10:28:35.411Z,99.90
2022-08-26T10:31:05.389Z,99.90
2022-08-26T10:33:32.122Z,99.90
2022-08-26T10:36:03.143Z,99.90
2022-08-26T10:38:34.766Z,99.90
2022-08-26T10:41:01.470Z,99.90
2022-08-26T10:43:58.341Z,99.90
2022-08-26T10:46:37.398Z,99.90
2022-08-26T10:49:13.465Z,99.90
2022-08-26T10:51:47.965Z,99.90
2022-08-26T10:54:14.646Z,99.90
2022-08-26T10:56:44.503Z,99.90
2022-08-26T10:59:38.729Z,99.90
2022-08-26T11:02:11.977Z,99.90
2022-08-26T11:04:54.683Z,99.90
2022-08-26T11:07:31.738Z,99.90
2022-08-26T11:10:00.493Z,99.90
2022-08-26T11:12:50.258Z,99.90
2022-08-26T11:15:24.627Z,99.90
2022-08-26T11:17:51.607Z,99.90
2022-08-26T11:20:34.010Z,99.90
2022-08-26T11:23:13.652Z,99.90
2022-08-26T11:26:01.884Z,99.90
2022-08-26T11:28:33.955Z,99.90
2022-08-26T11:31:00.655Z,99.90
2022-08-26T11:33:45.822Z,99.90
2022-08-26T11:36:28.679Z,99.90
2022-08-26T11:38:55.376Z,99.90
2022-08-26T11:41:23.008Z,99.90
2022-08-26T11:43:52.240Z,99.90
2022-08-26T11:46:30.451Z,99.90
2022-08-26T11:49:03.885Z,99.90
2022-08-26T11:51:31.951Z,99.90
2022-08-26T11:54:12.247Z,99.90
2022-08-26T11:56:40.563Z,99.90
2022-08-26T11:59:11.571Z,99.90
2022-08-26T12:01:40.271Z,99.90
2022-08-26T12:04:08.318Z,99.90
2022-08-26T12:06:46.714Z,99.90
2022-08-26T12:09:27.799Z,99.90
2022-08-26T12:12:09.925Z,99.90
2022-08-26T12:14:39.641Z,99.90
2022-08-26T12:17:11.372Z,99.90
2022-08-26T12:19:38.265Z,99.90
2022-08-26T12:22:07.844Z,99.90
2022-08-26T12:24:35.162Z,99.90
2022-08-26T12:27:08.663Z,99.90
2022-08-26T12:29:35.377Z,99.90
2022-08-26T12:32:10.002Z,99.90
2022-08-26T12:34:36.949Z,99.90
2022-08-26T12:37:03.953Z,99.90
2022-08-26T12:39:35.708Z,99.90
2022-08-26T12:42:15.893Z,99.90
2022-08-26T12:44:53.016Z,99.90
2022-08-26T12:47:42.365Z,99.90
2022-08-26T12:50:16.247Z,99.90
2022-08-26T12:53:03.249Z,99.90
2022-08-26T12:55:33.078Z,99.90
2022-08-26T12:58:29.959Z,99.90
2022-08-26T13:00:58.407Z,99.90
2022-08-26T13:03:31.180Z,99.90
2022-08-26T13:06:16.959Z,99.90
2022-08-26T13:08:45.028Z,99.90
2022-08-26T13:11:38.052Z,99.90
2022-08-26T13:14:07.381Z,99.90
2022-08-26T13:16:34.852Z,99.90
2022-08-26T13:19:03.114Z,99.90
2022-08-26T13:21:37.980Z,99.90
2022-08-26T13:24:07.272Z,99.90
2022-08-26T13:26:35.223Z,99.90
2022-08-26T13:29:02.713Z,99.90
2022-08-26T13:31:31.167Z,99.90
2022-08-26T13:33:58.436Z,99.90
2022-08-26T13:36:25.106Z,99.90
2022-08-26T13:38:51.849Z,99.90
2022-08-26T13:41:19.290Z,99.90
2022-08-26T13:43:56.706Z,99.90
2022-08-26T13:46:28.488Z,99.90
2022-08-26T13:48:55.876Z,99.90
2022-08-26T13:51:23.390Z,99.90
2022-08-26T13:53:50.746Z,99.90
2022-08-26T13:56:18.767Z,99.90
2022-08-26T13:58:46.050Z,99.90
2022-08-26T14:01:13.543Z,99.90
2022-08-26T14:03:40.376Z,99.90
2022-08-26T14:06:07.540Z,99.90
2022-08-26T14:08:34.309Z,99.90
2022-08-26T14:11:01.015Z,99.90
2022-08-26T14:13:27.865Z,99.90
2022-08-26T14:15:54.852Z,99.90
2022-08-26T14:18:27.683Z,99.90
2022-08-26T14:20:55.188Z,99.90
2022-08-26T14:23:22.849Z,99.90
2022-08-26T14:25:49.721Z,99.90
2022-08-26T14:28:16.480Z,99.90
2022-08-26T14:30:47.455Z,99.90
2022-08-26T14:33:14.966Z,99.90
2022-08-26T14:35:43.717Z,99.90
2022-08-26T14:38:16.575Z,99.90
2022-08-26T14:40:47.087Z,99.90
2022-08-26T14:43:15.374Z,99.90
2022-08-26T14:48:29.492Z,99.90
2022-08-26T14:50:56.269Z,99.90
2022-08-26T14:53:41.547Z,99.90
2022-08-26T14:56:12.676Z,99.90
2022-08-26T14:58:44.081Z,99.90
2022-08-26T15:01:12.976Z,99.90
2022-08-26T15:03:39.649Z,99.90
2022-08-26T15:06:06.435Z,99.90
2022-08-26T15:08:36.574Z,99.90
2022-08-26T15:11:03.735Z,99.90
2022-08-26T15:13:30.476Z,99.90
2022-08-26T15:15:57.367Z,99.90
2022-08-26T15:18:24.115Z,99.90
2022-08-26T15:20:50.893Z,99.90
2022-08-26T15:23:17.651Z,99.90
2022-08-26T15:25:45.340Z,99.90
2022-08-26T15:28:15.982Z,99.90
2022-08-26T15:30:43.410Z,99.90
2022-08-26T15:33:15.268Z,99.90
2022-08-26T15:35:42.922Z,99.90
2022-08-26T15:38:10.388Z,99.90
2022-08-26T15:40:37.403Z,99.90
2022-08-26T15:43:25.417Z,99.90
2022-08-26T15:45:51.837Z,99.90
2022-08-26T15:48:19.039Z,99.90
2022-08-26T15:50:50.801Z,99.90
2022-08-26T15:53:17.561Z,99.90
2022-08-26T15:55:44.803Z,99.90
2022-08-26T15:58:11.647Z,99.90
2022-08-26T16:00:40.017Z,99.90
2022-08-26T16:03:07.075Z,99.90
2022-08-26T16:05:38.315Z,99.90
2022-08-26T16:08:06.420Z,99.90
2022-08-26T16:10:33.931Z,99.90
2022-08-26T16:13:00.815Z,99.90
2022-08-26T16:15:27.642Z,99.90
2022-08-26T16:17:55.074Z,99.90
2022-08-26T16:20:21.814Z,99.90
2022-08-26T16:22:48.910Z,99.90
2022-08-26T16:25:15.788Z,99.90
2022-08-26T16:27:42.601Z,99.90
2022-08-26T16:30:10.321Z,99.90
2022-08-26T16:32:37.312Z,99.90
2022-08-26T16:35:04.263Z,99.90
2022-08-26T16:37:30.942Z,99.90
2022-08-26T16:39:57.757Z,99.90
2022-08-26T16:42:24.516Z,99.90
2022-08-26T16:44:51.341Z,99.90
2022-08-26T16:47:21.541Z,99.90
2022-08-26T16:49:48.438Z,99.90
2022-08-26T16:52:15.289Z,99.90
2022-08-26T16:54:42.369Z,99.90
2022-08-26T16:57:09.654Z,99.90
2022-08-26T16:59:36.389Z,99.90
2022-08-26T17:02:03.255Z,99.90
2022-08-26T17:04:30.115Z,99.90
2022-08-26T17:06:56.880Z,99.90
2022-08-26T17:09:23.947Z,99.90
2022-08-26T17:11:50.772Z,99.90
2022-08-26T17:14:17.890Z,99.90
2022-08-26T17:16:44.981Z,99.90
2022-08-26T17:19:11.814Z,99.90
2022-08-26T17:21:39.207Z,99.90
2022-08-26T17:24:06.098Z,99.90
2022-08-26T17:26:33.213Z,99.90
2022-08-26T17:29:00.197Z,99.90
2022-08-26T17:31:27.104Z,99.90
2022-08-26T17:33:55.544Z,99.90
2022-08-26T17:36:27.677Z,99.90
2022-08-26T17:38:55.221Z,99.90
2022-08-26T17:41:22.259Z,99.90
2022-08-26T17:43:48.960Z,99.90
2022-08-26T17:46:15.798Z,99.90
2022-08-26T17:48:42.825Z,99.90
2022-08-26T17:51:12.247Z,99.90
2022-08-26T17:53:39.854Z,99.90
2022-08-26T17:56:10.846Z,99.90
2022-08-26T17:58:37.990Z,99.90
2022-08-26T18:01:06.192Z,99.90
2022-08-26T18:03:33.851Z,99.90
2022-08-26T18:06:01.117Z,99.90
2022-08-26T18:08:27.930Z,99.90
2022-08-26T18:10:54.754Z,99.90
2022-08-26T18:13:21.861Z,99.90
2022-08-26T18:15:48.642Z,99.90
2022-08-26T18:18:15.660Z,99.90
2022-08-26T18:20:43.677Z,99.90
2022-08-26T18:23:10.941Z,99.90
2022-08-26T18:25:42.114Z,99.90
2022-08-26T18:28:09.526Z,99.90
2022-08-26T18:30:36.393Z,99.90
2022-08-26T18:33:04.006Z,99.90
2022-08-26T18:35:30.896Z,99.90
2022-08-26T18:37:58.221Z,99.90
2022-08-26T18:40:28.190Z,99.90
2022-08-26T18:42:55.041Z,99.90
2022-08-26T18:45:21.782Z,99.90
2022-08-26T18:47:48.468Z,99.90
2022-08-26T18:50:15.778Z,99.90
2022-08-26T18:52:42.525Z,99.90
2022-08-26T18:55:09.479Z,99.90
2022-08-26T18:57:36.133Z,99.90
2022-08-26T19:00:04.791Z,99.90
2022-08-26T19:02:32.821Z,99.90
2022-08-26T19:04:59.805Z,99.90
2022-08-26T19:07:26.538Z,99.90
2022-08-26T19:09:54.124Z,99.90
2022-08-26T19:12:21.368Z,99.90
2022-08-26T19:14:48.139Z,99.90
2022-08-26T19:17:14.869Z,99.90
2022-08-26T19:19:41.612Z,99.90
2022-08-26T19:22:08.311Z,99.90
2022-08-26T19:24:35.061Z,99.90
2022-08-26T19:27:02.365Z,99.90
2022-08-26T19:29:31.108Z,99.90
2022-08-26T19:31:58.234Z,99.90
2022-08-26T19:34:24.990Z,99.90
2022-08-26T19:36:53.348Z,99.90
2022-08-26T19:39:20.798Z,99.90
2022-08-26T19:41:47.606Z,99.90
2022-08-26T19:44:35.916Z,99.90
2022-08-26T19:47:03.668Z,99.90
2022-08-26T19:49:30.846Z,99.90
2022-08-26T19:51:57.655Z,99.90
2022-08-26T19:54:24.506Z,99.90
2022-08-26T19:56:51.485Z,99.90
2022-08-26T19:59:18.730Z,99.90
2022-08-26T20:01:45.512Z,99.90
2022-08-26T20:04:12.537Z,99.90
2022-08-26T20:06:39.828Z,99.90
2022-08-26T20:09:06.872Z,99.90
2022-08-26T20:11:33.860Z,99.90
2022-08-26T20:14:00.701Z,99.90
2022-08-26T20:16:27.513Z,99.90
2022-08-26T20:19:13.072Z,99.90
2022-08-26T20:21:40.821Z,99.90
2022-08-26T20:24:14.507Z,99.90
2022-08-26T20:26:42.140Z,99.90
2022-08-26T20:29:09.820Z,99.90
2022-08-26T20:31:36.717Z,99.90
2022-08-26T20:34:05.217Z,99.90
2022-08-26T20:36:32.778Z,99.90
2022-08-26T20:38:59.620Z,99.90
2022-08-26T20:41:26.785Z,99.90
2022-08-26T20:43:54.104Z,99.90
2022-08-26T20:46:24.506Z,99.90
2022-08-26T20:48:52.290Z,99.90
2022-08-26T20:51:19.500Z,99.90
2022-08-26T20:53:46.274Z,99.90
2022-08-26T20:56:14.529Z,99.90
2022-08-26T20:58:41.765Z,99.90
2022-08-26T21:01:17.588Z,99.90
2022-08-26T21:03:44.788Z,99.90
2022-08-26T21:06:11.677Z,99.90
2022-08-26T21:08:43.347Z,99.90
2022-08-26T21:11:11.611Z,99.90
2022-08-26T21:14:01.147Z,99.90
2022-08-26T21:16:25.606Z,99.90
2022-08-26T21:18:52.813Z,99.90
2022-08-26T21:21:20.233Z,99.90
2022-08-26T21:23:52.701Z,99.90
2022-08-26T21:26:19.576Z,99.90
2022-08-26T21:28:47.942Z,99.90
2022-08-26T21:31:16.248Z,99.90
2022-08-26T21:33:43.372Z,99.90
2022-08-26T21:36:11.561Z,99.90
2022-08-26T21:38:40.042Z,99.90
2022-08-26T21:41:11.959Z,99.90
2022-08-26T21:43:39.679Z,99.90
2022-08-26T21:46:11.808Z,99.90
2022-08-26T21:48:39.559Z,99.90
2022-08-26T21:51:06.785Z,99.90
2022-08-26T21:53:33.782Z,99.90
2022-08-26T21:56:05.964Z,99.90
2022-08-26T21:58:35.743Z,99.90
2022-08-26T22:01:04.346Z,99.90
2022-08-26T22:03:32.234Z,99.90
2022-08-26T22:06:12.891Z,99.90
2022-08-26T22:08:40.253Z,99.90
2022-08-26T22:11:10.684Z,99.90
2022-08-26T22:13:38.997Z,99.90
2022-08-26T22:16:06.812Z,99.90
2022-08-26T22:18:34.203Z,99.90
2022-08-26T22:21:02.584Z,99.90
2022-08-26T22:23:29.881Z,99.90
2022-08-26T22:25:56.851Z,99.90
2022-08-26T22:28:23.661Z,99.90
2022-08-26T22:30:50.824Z,99.90
2022-08-26T22:33:18.175Z,99.90
2022-08-26T22:35:46.515Z,99.90
2022-08-26T22:38:13.595Z,99.90
2022-08-26T22:40:44.861Z,99.90
2022-08-26T22:43:12.314Z,99.90
2022-08-26T22:45:43.588Z,99.90
2022-08-26T22:48:11.788Z,99.90
2022-08-26T22:50:38.800Z,99.90
2022-08-26T22:53:05.487Z,99.90
2022-08-26T22:55:32.363Z,99.90
2022-08-26T22:57:59.190Z,99.90
2022-08-26T23:00:28.993Z,99.90
2022-08-26T23:02:59.140Z,99.90
2022-08-26T23:05:25.808Z,99.90
2022-08-26T23:07:52.573Z,99.90
2022-08-26T23:10:19.461Z,99.90
2022-08-26T23:12:46.160Z,99.90
2022-08-26T23:15:12.999Z,99.90
2022-08-26T23:17:39.892Z,99.90
2022-08-26T23:20:09.252Z,99.90
2022-08-26T23:22:36.519Z,99.90
2022-08-26T23:25:07.679Z,99.90
2022-08-26T23:27:35.648Z,99.90
2022-08-26T23:30:03.998Z,99.90
2022-08-26T23:32:30.664Z,99.90
2022-08-26T23:34:58.807Z,99.90
2022-08-26T23:37:27.115Z,99.90
2022-08-26T23:39:54.723Z,99.90
2022-08-26T23:42:21.975Z,99.90
2022-08-26T23:44:49.039Z,99.90
2022-08-26T23:47:17.021Z,99.90
2022-08-26T23:49:44.169Z,99.90
2022-08-26T23:52:30.104Z,99.90
2022-08-26T23:54:56.882Z,99.90
2022-08-26T23:57:24.754Z,99.90
2022-08-26T23:59:51.572Z,99.90
